Terminal Aerodrome Forecast
Issued by NWS

Home | Current Version | Previous Version | Text Only | Print | Product List | Glossary On
Versions: 1 2 3 4 5 6 7 8 9 10 11 12 13 14 15
057
FTUS46 KSEW 100648 RRA
TAFBLI
TAF
KBLI 100648Z 1007/1106 04007KT P6SM SCT250
     FM101200 16005KT P6SM OVC100
     FM101700 16008KT P6SM OVC050
     FM102000 16010G18KT P6SM OVC045
      TEMPO 1020/1024 -RA=

USA.gov is the U.S. government's official web portal to all federal, state and local government web resources and services.